Time;durP1;ratioP1;P1;durP2;ratioP2;P2;SDS_P1;SDS_P2;PMS_P1;PMS_P2;Temp;Humidity;BMP_temperature;BMP_pressure;BME280_temperature;BME280_humidity;BME280_pressure;Samples;Min_cycle;Max_cycle;Signal;HPM_P1;HPM_P2
2023/09/21 00:01:06;;;;;;;6.28;2.20;;;;;;;;;;4934330;28;20057;-88
2023/09/21 00:03:36;;;;;;;5.22;2.15;;;;;;;;;;4934101;28;20070;-89
2023/09/21 00:06:03;;;;;;;3.15;1.90;;;;;;;;;;4931830;28;20047;-88
2023/09/21 00:08:30;;;;;;;3.75;2.25;;;;;;;;;;4928786;28;20447;-88
2023/09/21 00:10:57;;;;;;;4.28;2.00;;;;;;;;;;4933651;28;20181;-88
2023/09/21 00:13:26;;;;;;;4.80;2.20;;;;;;;;;;4949088;28;20065;-88
2023/09/21 00:15:53;;;;;;;4.63;2.50;;;;;;;;;;4948551;28;20061;-88
2023/09/21 00:18:21;;;;;;;5.72;2.28;;;;;;;;;;4927952;28;20093;-87
2023/09/21 00:20:55;;;;;;;7.45;2.13;;;;;;;;;;4931140;28;20724;-88
2023/09/21 00:23:23;;;;;;;6.45;2.10;;;;;;;;;;4933396;28;20047;-87
2023/09/21 00:25:49;;;;;;;5.28;2.30;;;;;;;;;;4936129;28;20166;-87
2023/09/21 00:28:19;;;;;;;6.82;2.30;;;;;;;;;;4961986;28;20066;-88
2023/09/21 00:30:45;;;;;;;5.85;2.35;;;;;;;;;;4933029;28;20553;-88
2023/09/21 00:33:12;;;;;;;6.13;2.38;;;;;;;;;;4932864;28;20053;-89
2023/09/21 00:35:41;;;;;;;7.82;2.40;;;;;;;;;;4933186;28;20050;-88
2023/09/21 00:38:09;;;;;;;6.38;2.40;;;;;;;;;;4948569;28;20082;-88
2023/09/21 00:40:38;;;;;;;6.50;2.75;;;;;;;;;;4925902;28;20043;-88
2023/09/21 00:43:14;;;;;;;5.45;2.45;;;;;;;;;;4949433;28;20059;-88
2023/09/21 00:45:48;;;;;;;5.82;2.50;;;;;;;;;;4962727;28;20074;-88
2023/09/21 00:48:21;;;;;;;5.07;2.60;;;;;;;;;;4934743;28;20055;-89
2023/09/21 00:50:47;;;;;;;5.90;2.60;;;;;;;;;;4932920;28;20042;-89
2023/09/21 00:53:14;;;;;;;4.78;2.42;;;;;;;;;;4966964;28;20406;-89
2023/09/21 00:55:40;;;;;;;5.18;2.30;;;;;;;;;;4931265;28;20039;-88
2023/09/21 00:58:07;;;;;;;8.07;2.40;;;;;;;;;;4951024;28;20054;-89
2023/09/21 01:00:33;;;;;;;5.28;2.55;;;;;;;;;;4933099;28;20047;-89
2023/09/21 01:03:07;;;;;;;6.95;2.45;;;;;;;;;;4932212;28;20059;-89
2023/09/21 01:05:36;;;;;;;5.10;2.60;;;;;;;;;;4932850;28;20146;-88
2023/09/21 01:08:08;;;;;;;6.47;2.50;;;;;;;;;;4932756;28;20050;-90
2023/09/21 01:10:36;;;;;;;4.63;2.80;;;;;;;;;;4929993;28;20054;-89
2023/09/21 01:13:03;;;;;;;3.78;2.13;;;;;;;;;;4929481;29;20051;-90
2023/09/21 01:15:29;;;;;;;7.03;2.30;;;;;;;;;;4931584;28;20166;-89
2023/09/21 01:17:55;;;;;;;4.82;2.47;;;;;;;;;;4928775;28;20066;-89
2023/09/21 01:20:29;;;;;;;4.95;2.45;;;;;;;;;;4928482;29;20126;-89
2023/09/21 01:23:08;;;;;;;5.85;2.50;;;;;;;;;;4947589;28;20054;-89
2023/09/21 01:25:38;;;;;;;6.35;2.70;;;;;;;;;;4948178;28;20058;-88
2023/09/21 01:28:05;;;;;;;5.78;2.70;;;;;;;;;;4930959;28;20315;-89
2023/09/21 01:30:34;;;;;;;6.38;2.60;;;;;;;;;;4938594;28;20061;-89
2023/09/21 01:33:04;;;;;;;3.75;2.33;;;;;;;;;;4962922;28;20043;-89
2023/09/21 01:35:32;;;;;;;5.00;2.60;;;;;;;;;;4947862;28;20858;-87
2023/09/21 01:37:59;;;;;;;4.30;2.22;;;;;;;;;;4933285;28;20055;-88
2023/09/21 01:40:25;;;;;;;4.38;2.33;;;;;;;;;;4946569;28;20290;-88
2023/09/21 01:42:51;;;;;;;4.43;2.58;;;;;;;;;;4931312;28;20193;-88
2023/09/21 01:45:17;;;;;;;7.43;2.60;;;;;;;;;;4947918;28;20149;-89
2023/09/21 01:47:43;;;;;;;4.93;2.50;;;;;;;;;;4947679;28;20038;-88
2023/09/21 01:50:15;;;;;;;8.95;2.42;;;;;;;;;;4948183;28;20043;-89
2023/09/21 01:52:44;;;;;;;7.20;2.38;;;;;;;;;;4929309;28;20071;-89
2023/09/21 01:55:12;;;;;;;5.55;2.30;;;;;;;;;;4947110;28;20113;-88
2023/09/21 01:57:39;;;;;;;7.75;2.47;;;;;;;;;;4943703;28;20062;-89
2023/09/21 02:00:21;;;;;;;3.85;2.30;;;;;;;;;;4948500;28;20080;-89
2023/09/21 02:02:54;;;;;;;6.03;2.60;;;;;;;;;;4946023;28;20053;-92
2023/09/21 02:05:20;;;;;;;4.40;2.42;;;;;;;;;;4933017;28;20093;-90
2023/09/21 02:07:47;;;;;;;5.63;2.38;;;;;;;;;;4932622;28;20043;-88
2023/09/21 02:10:17;;;;;;;6.28;2.53;;;;;;;;;;4931772;28;20050;-87
2023/09/21 02:12:54;;;;;;;4.85;2.10;;;;;;;;;;4944629;28;20084;-88
2023/09/21 02:15:20;;;;;;;5.60;2.10;;;;;;;;;;4948408;28;20078;-87
2023/09/21 02:17:47;;;;;;;5.90;2.38;;;;;;;;;;4931050;28;20070;-88
2023/09/21 02:20:14;;;;;;;5.22;2.22;;;;;;;;;;4932501;28;20046;-87
2023/09/21 02:22:41;;;;;;;4.57;2.28;;;;;;;;;;4937613;28;20346;-88
2023/09/21 02:25:07;;;;;;;6.50;2.30;;;;;;;;;;4946973;28;20415;-88
2023/09/21 02:27:35;;;;;;;7.07;2.40;;;;;;;;;;4931194;28;20082;-87
2023/09/21 02:30:01;;;;;;;7.13;2.47;;;;;;;;;;4945648;28;20624;-88
2023/09/21 02:32:27;;;;;;;4.28;2.17;;;;;;;;;;4927111;28;20122;-88
2023/09/21 02:34:53;;;;;;;5.25;2.30;;;;;;;;;;4944498;28;20053;-88
2023/09/21 02:37:19;;;;;;;4.88;2.53;;;;;;;;;;4929568;28;20105;-88
2023/09/21 02:39:46;;;;;;;5.03;2.22;;;;;;;;;;4934221;28;20050;-89
2023/09/21 02:42:12;;;;;;;5.68;2.10;;;;;;;;;;4935922;28;20050;-88
2023/09/21 02:44:39;;;;;;;4.20;2.40;;;;;;;;;;4952659;28;20502;-89
2023/09/21 02:47:05;;;;;;;4.82;2.45;;;;;;;;;;4946020;28;20452;-88
2023/09/21 02:49:31;;;;;;;3.83;1.90;;;;;;;;;;4936502;28;20478;-88
2023/09/21 02:51:57;;;;;;;5.47;2.28;;;;;;;;;;4936446;28;20137;-88
2023/09/21 02:54:23;;;;;;;4.47;2.28;;;;;;;;;;4951778;28;20046;-89
2023/09/21 02:56:50;;;;;;;4.13;2.45;;;;;;;;;;4935533;28;20062;-89
2023/09/21 02:59:16;;;;;;;3.22;2.40;;;;;;;;;;4952195;28;20279;-86
2023/09/21 03:01:42;;;;;;;5.68;2.28;;;;;;;;;;4936690;28;20506;-89
2023/09/21 03:04:10;;;;;;;6.05;2.25;;;;;;;;;;4968522;28;20566;-88
2023/09/21 03:06:37;;;;;;;;;;;;;;;;;;4951923;28;20047;-89
2023/09/21 03:09:05;;;;;;;5.68;2.53;;;;;;;;;;4947555;28;19929;-88
2023/09/21 03:11:31;;;;;;;4.28;2.08;;;;;;;;;;4928617;28;20589;-88
2023/09/21 03:13:57;;;;;;;5.00;2.22;;;;;;;;;;4926027;28;20047;-88
2023/09/21 03:16:23;;;;;;;3.30;2.13;;;;;;;;;;4929784;28;20181;-88
2023/09/21 03:18:49;;;;;;;3.30;2.22;;;;;;;;;;4947858;28;20039;-89
2023/09/21 03:21:15;;;;;;;6.20;2.50;;;;;;;;;;4948562;28;20197;-88
2023/09/21 03:23:42;;;;;;;4.45;2.17;;;;;;;;;;4946840;28;20074;-89
2023/09/21 03:26:11;;;;;;;5.13;2.13;;;;;;;;;;4929004;28;20066;-88
2023/09/21 03:28:37;;;;;;;5.38;2.20;;;;;;;;;;4928678;28;20050;-89
2023/09/21 03:31:03;;;;;;;4.20;2.30;;;;;;;;;;4943092;28;20074;-89
2023/09/21 03:33:32;;;;;;;4.38;2.40;;;;;;;;;;4945944;28;20042;-89
2023/09/21 03:35:58;;;;;;;;;;;;;;;;;;4929970;28;20579;-89
2023/09/21 03:38:24;;;;;;;5.03;2.05;;;;;;;;;;4948767;28;19925;-89
2023/09/21 03:40:51;;;;;;;4.82;2.25;;;;;;;;;;4934946;28;20053;-89
2023/09/21 03:43:18;;;;;;;5.25;2.45;;;;;;;;;;4935583;28;20121;-89
2023/09/21 03:45:44;;;;;;;4.60;2.13;;;;;;;;;;4936269;28;20146;-88
2023/09/21 03:48:12;;;;;;;4.85;2.05;;;;;;;;;;4935518;28;20053;-88
2023/09/21 03:50:39;;;;;;;4.78;2.10;;;;;;;;;;4929719;28;20479;-89
2023/09/21 03:53:08;;;;;;;3.50;1.83;;;;;;;;;;4946222;28;20091;-88
2023/09/21 03:55:35;;;;;;;5.72;2.22;;;;;;;;;;4932559;28;20533;-90
2023/09/21 03:58:02;;;;;;;4.35;1.95;;;;;;;;;;4935880;28;20487;-89
2023/09/21 04:03:00;;;;;;;6.35;2.45;;;;;;;;;;4950371;28;20069;-88
2023/09/21 04:05:29;;;;;;;3.47;2.00;;;;;;;;;;4950581;28;20039;-88
2023/09/21 04:07:55;;;;;;;;;;;;;;;;;;4950316;28;20058;-90
2023/09/21 04:10:21;;;;;;;4.77;2.03;;;;;;;;;;4930654;28;19937;-89
2023/09/21 04:12:48;;;;;;;7.45;1.95;;;;;;;;;;4962621;28;20109;-89
2023/09/21 04:15:16;;;;;;;4.85;2.05;;;;;;;;;;4925733;28;20039;-88
2023/09/21 04:17:42;;;;;;;5.38;2.40;;;;;;;;;;4948107;28;20186;-89
2023/09/21 04:20:14;;;;;;;5.05;2.22;;;;;;;;;;4933572;28;20055;-87
2023/09/21 04:22:41;;;;;;;5.47;2.40;;;;;;;;;;4935424;28;20046;-89
2023/09/21 04:25:07;;;;;;;5.45;2.00;;;;;;;;;;4945293;28;20070;-88
2023/09/21 04:27:35;;;;;;;4.95;2.10;;;;;;;;;;4946740;28;20491;-88
2023/09/21 04:30:02;;;;;;;5.97;2.30;;;;;;;;;;4930778;28;20109;-89
2023/09/21 04:32:28;;;;;;;3.15;1.90;;;;;;;;;;4944734;28;20493;-88
2023/09/21 04:34:54;;;;;;;3.88;2.00;;;;;;;;;;4944053;28;20403;-88
2023/09/21 04:37:20;;;;;;;5.75;2.40;;;;;;;;;;4926997;28;20047;-88
2023/09/21 04:39:47;;;;;;;6.97;2.40;;;;;;;;;;4926411;28;20042;-88
2023/09/21 04:42:13;;;;;;;6.47;2.20;;;;;;;;;;4934240;28;20039;-88
2023/09/21 04:44:39;;;;;;;4.13;2.03;;;;;;;;;;4949001;28;20182;-89
2023/09/21 04:47:05;;;;;;;5.00;2.28;;;;;;;;;;4926490;28;20115;-88
2023/09/21 04:49:31;;;;;;;4.13;2.28;;;;;;;;;;4950670;28;20043;-88
2023/09/21 04:51:58;;;;;;;3.78;2.10;;;;;;;;;;4950401;28;20054;-88
2023/09/21 04:54:24;;;;;;;4.90;2.10;;;;;;;;;;4934051;28;20042;-88
2023/09/21 04:56:51;;;;;;;5.30;2.20;;;;;;;;;;4949056;28;20043;-89
2023/09/21 04:59:20;;;;;;;3.13;1.95;;;;;;;;;;4949500;28;20042;-90
2023/09/21 05:01:47;;;;;;;4.78;2.20;;;;;;;;;;4930912;28;20042;-89
2023/09/21 05:04:13;;;;;;;5.22;2.15;;;;;;;;;;4946428;28;20070;-89
2023/09/21 05:06:39;;;;;;;3.53;2.20;;;;;;;;;;4944249;28;20058;-89
2023/09/21 05:14:23;;;;;;;3.97;2.15;;;;;;;;;;5431367;23;20979;-85
2023/09/21 05:16:49;;;;;;;4.95;2.58;;;;;;;;;;4941326;28;20051;-88
2023/09/21 05:19:24;;;;;;;4.50;2.28;;;;;;;;;;4956205;28;20273;-84
2023/09/21 05:21:50;;;;;;;5.90;2.47;;;;;;;;;;4938707;28;20046;-81
2023/09/21 05:27:08;;;;;;;4.90;2.10;;;;;;;;;;4926620;28;20053;-87
2023/09/21 05:29:36;;;;;;;3.03;2.13;;;;;;;;;;4924800;28;20058;-86
2023/09/21 05:32:05;;;;;;;4.30;2.28;;;;;;;;;;4924409;28;20083;-85
2023/09/21 05:34:32;;;;;;;4.20;2.10;;;;;;;;;;4931627;28;20055;-87
2023/09/21 05:36:58;;;;;;;5.47;2.40;;;;;;;;;;4945366;28;20054;-83
2023/09/21 05:39:24;;;;;;;4.53;2.13;;;;;;;;;;4942511;29;20050;-83
2023/09/21 05:41:51;;;;;;;5.20;2.10;;;;;;;;;;4944317;28;20047;-82
2023/09/21 05:44:21;;;;;;;5.68;2.00;;;;;;;;;;4944137;28;20129;-82
2023/09/21 05:46:47;;;;;;;5.65;2.20;;;;;;;;;;4939620;28;20054;-84
2023/09/21 05:49:21;;;;;;;5.50;2.53;;;;;;;;;;4938392;28;20043;-83
2023/09/21 05:51:56;;;;;;;5.47;2.37;;;;;;;;;;4936839;28;20051;-85
2023/09/21 05:54:26;;;;;;;3.28;2.05;;;;;;;;;;4939214;28;20046;-86
2023/09/21 05:56:55;;;;;;;5.00;2.15;;;;;;;;;;4937791;28;20051;-85
2023/09/21 05:59:22;;;;;;;4.78;2.20;;;;;;;;;;4940827;28;20054;-83
2023/09/21 06:01:48;;;;;;;4.38;1.95;;;;;;;;;;4935798;28;20055;-86
2023/09/21 06:04:16;;;;;;;3.47;2.13;;;;;;;;;;4937341;28;20089;-85
2023/09/21 06:06:43;;;;;;;3.95;2.00;;;;;;;;;;4940209;28;20050;-86
2023/09/21 06:09:10;;;;;;;3.85;2.00;;;;;;;;;;4941128;28;20050;-83
2023/09/21 06:11:36;;;;;;;5.03;2.00;;;;;;;;;;4917622;28;20052;-86
2023/09/21 06:14:02;;;;;;;4.30;1.92;;;;;;;;;;4956990;28;20063;-87
2023/09/21 06:16:29;;;;;;;3.60;2.05;;;;;;;;;;4938041;28;20458;-86
2023/09/21 06:18:55;;;;;;;5.28;2.25;;;;;;;;;;4957802;28;20039;-85
2023/09/21 06:21:21;;;;;;;3.28;2.10;;;;;;;;;;4935857;28;20080;-87
2023/09/21 06:23:49;;;;;;;3.22;1.80;;;;;;;;;;4938548;28;20415;-87
2023/09/21 06:26:15;;;;;;;4.47;2.08;;;;;;;;;;4940147;28;20047;-84
2023/09/21 06:28:47;;;;;;;3.75;1.98;;;;;;;;;;4958129;28;20854;-86
2023/09/21 06:31:13;;;;;;;3.50;2.20;;;;;;;;;;4940550;28;20054;-84
2023/09/21 06:33:43;;;;;;;5.30;2.15;;;;;;;;;;4936096;28;20599;-85
2023/09/21 06:36:15;;;;;;;4.47;2.20;;;;;;;;;;4940442;28;20535;-83
2023/09/21 06:38:44;;;;;;;7.65;2.22;;;;;;;;;;4956362;28;20089;-82
2023/09/21 06:41:12;;;;;;;4.28;2.47;;;;;;;;;;4940781;28;20054;-84
2023/09/21 06:43:43;;;;;;;4.07;2.00;;;;;;;;;;4957988;28;20031;-82
2023/09/21 06:46:10;;;;;;;4.45;2.05;;;;;;;;;;5012384;23;20025;-84
2023/09/21 06:48:36;;;;;;;3.22;2.08;;;;;;;;;;4943498;28;20061;-86
2023/09/21 06:51:04;;;;;;;4.20;2.13;;;;;;;;;;4949337;28;20046;-84
2023/09/21 06:53:31;;;;;;;6.03;1.92;;;;;;;;;;4942250;28;20059;-83
2023/09/21 06:55:58;;;;;;;3.15;2.10;;;;;;;;;;4963359;28;20042;-86
2023/09/21 06:58:30;;;;;;;3.50;1.90;;;;;;;;;;4935380;28;20050;-88
2023/09/21 07:01:00;;;;;;;2.92;1.90;;;;;;;;;;4944825;28;20042;-83
2023/09/21 07:03:27;;;;;;;5.20;1.88;;;;;;;;;;4948789;28;20068;-84
2023/09/21 07:05:53;;;;;;;4.18;2.20;;;;;;;;;;4951838;28;20486;-83
2023/09/21 07:08:19;;;;;;;5.00;1.95;;;;;;;;;;4965575;28;20097;-84
2023/09/21 07:10:49;;;;;;;6.13;2.20;;;;;;;;;;4974746;28;20414;-88
2023/09/21 07:13:15;;;;;;;6.25;2.30;;;;;;;;;;4944968;28;20061;-87
2023/09/21 07:15:41;;;;;;;4.30;2.20;;;;;;;;;;4960051;28;20042;-88
2023/09/21 07:18:08;;;;;;;4.57;2.00;;;;;;;;;;4946471;28;20510;-83
2023/09/21 07:20:34;;;;;;;5.23;1.93;;;;;;;;;;4947496;28;20489;-84
2023/09/21 07:23:03;;;;;;;5.07;1.98;;;;;;;;;;4952634;28;20340;-86
2023/09/21 07:25:29;;;;;;;3.38;2.03;;;;;;;;;;4961731;28;20672;-83
2023/09/21 07:27:56;;;;;;;5.38;2.20;;;;;;;;;;4948945;28;20043;-85
2023/09/21 07:30:22;;;;;;;4.25;2.55;;;;;;;;;;4949821;28;20443;-84
2023/09/21 07:32:49;;;;;;;5.07;2.25;;;;;;;;;;4961404;28;20050;-84
2023/09/21 07:35:15;;;;;;;7.40;2.33;;;;;;;;;;4960267;28;20073;-86
2023/09/21 07:37:46;;;;;;;3.80;2.03;;;;;;;;;;4942374;28;20215;-89
2023/09/21 07:40:16;;;;;;;5.72;2.33;;;;;;;;;;4955789;28;20129;-85
2023/09/21 07:42:46;;;;;;;4.90;2.17;;;;;;;;;;4943017;28;20162;-84
2023/09/21 07:45:12;;;;;;;4.00;2.10;;;;;;;;;;4941598;28;20039;-82
2023/09/21 07:47:39;;;;;;;4.47;2.40;;;;;;;;;;4912865;29;20597;-84
2023/09/21 07:50:05;;;;;;;4.28;2.17;;;;;;;;;;4908534;28;20519;-84
2023/09/21 07:52:33;;;;;;;5.15;2.10;;;;;;;;;;4925107;28;20487;-82
2023/09/21 07:55:02;;;;;;;7.93;2.53;;;;;;;;;;4940318;28;20050;-83
2023/09/21 07:57:36;;;;;;;3.60;2.00;;;;;;;;;;4919861;28;20043;-82
2023/09/21 08:00:04;;;;;;;4.75;2.42;;;;;;;;;;4915742;29;20523;-84
2023/09/21 08:02:30;;;;;;;7.65;2.53;;;;;;;;;;4924095;29;20130;-82
2023/09/21 08:04:57;;;;;;;3.92;2.22;;;;;;;;;;4924965;28;20137;-82
2023/09/21 08:07:25;;;;;;;4.95;2.20;;;;;;;;;;4908003;29;20043;-85
2023/09/21 08:09:54;;;;;;;3.90;2.20;;;;;;;;;;4906837;29;20043;-84
2023/09/21 08:12:20;;;;;;;5.95;2.45;;;;;;;;;;4941611;28;20134;-84
2023/09/21 08:14:48;;;;;;;7.65;2.47;;;;;;;;;;4928835;28;20046;-85
2023/09/21 08:17:14;;;;;;;4.82;2.20;;;;;;;;;;4921952;29;20105;-85
2023/09/21 08:19:40;;;;;;;5.05;2.15;;;;;;;;;;4942844;29;20043;-85
2023/09/21 08:22:07;;;;;;;7.00;2.17;;;;;;;;;;4939555;29;20054;-86
2023/09/21 08:24:36;;;;;;;3.97;2.15;;;;;;;;;;4941893;28;20474;-85
2023/09/21 08:27:03;;;;;;;3.92;2.35;;;;;;;;;;4940008;29;20859;-85
2023/09/21 08:29:30;;;;;;;3.53;2.40;;;;;;;;;;4941637;29;20535;-86
2023/09/21 08:31:56;;;;;;;5.07;2.40;;;;;;;;;;4939216;28;20090;-85
2023/09/21 08:34:22;;;;;;;4.00;2.30;;;;;;;;;;4904715;28;20054;-85
2023/09/21 08:36:49;;;;;;;3.80;2.35;;;;;;;;;;4907464;29;20113;-83
2023/09/21 08:39:15;;;;;;;6.82;2.47;;;;;;;;;;4921699;29;20491;-84
2023/09/21 08:41:47;;;;;;;8.02;3.13;;;;;;;;;;4940811;29;20130;-88
2023/09/21 08:44:13;;;;;;;4.68;2.60;;;;;;;;;;4939531;28;21011;-84
2023/09/21 08:46:40;;;;;;;4.10;2.50;;;;;;;;;;4910937;28;20184;-85
2023/09/21 08:49:07;;;;;;;5.40;2.38;;;;;;;;;;4923131;29;21426;-85
2023/09/21 08:51:33;;;;;;;6.72;3.00;;;;;;;;;;4906684;28;20043;-84
2023/09/21 08:54:00;;;;;;;6.22;2.90;;;;;;;;;;4923012;29;20051;-85
2023/09/21 08:56:33;;;;;;;4.88;2.67;;;;;;;;;;4920569;29;20051;-84
2023/09/21 08:59:01;;;;;;;4.50;2.63;;;;;;;;;;4909751;29;20054;-84
2023/09/21 09:01:27;;;;;;;7.22;3.38;;;;;;;;;;4907636;29;20439;-84
2023/09/21 09:03:53;;;;;;;7.28;2.80;;;;;;;;;;4919817;29;20515;-85
2023/09/21 09:06:19;;;;;;;7.68;3.15;;;;;;;;;;4918955;29;20051;-85
2023/09/21 09:08:46;;;;;;;5.40;2.83;;;;;;;;;;4921749;29;20561;-85
2023/09/21 09:11:34;;;;;;;6.03;3.10;;;;;;;;;;4920181;29;20061;-87
2023/09/21 09:14:01;;;;;;;7.00;3.22;;;;;;;;;;4922592;28;20421;-85
2023/09/21 09:16:30;;;;;;;4.00;2.90;;;;;;;;;;4916377;29;20066;-85
2023/09/21 09:19:02;;;;;;;4.78;3.10;;;;;;;;;;4909469;28;20043;-86
2023/09/21 09:21:29;;;;;;;6.70;3.10;;;;;;;;;;4923355;29;20752;-85
2023/09/21 09:23:56;;;;;;;7.20;3.55;;;;;;;;;;4940213;28;20096;-87
2023/09/21 09:26:22;;;;;;;7.60;3.72;;;;;;;;;;4931202;28;20043;-86
2023/09/21 09:28:48;;;;;;;4.95;3.10;;;;;;;;;;4942029;28;20079;-85
2023/09/21 09:31:17;;;;;;;4.95;3.25;;;;;;;;;;4939730;28;20074;-86
2023/09/21 09:33:46;;;;;;;7.32;3.28;;;;;;;;;;4941413;28;20053;-83
2023/09/21 09:36:13;;;;;;;;;;;;;;;;;;4939557;28;20047;-84
2023/09/21 09:38:39;;;;;;;6.85;3.20;;;;;;;;;;4940833;29;19968;-85
2023/09/21 09:41:06;;;;;;;6.43;3.50;;;;;;;;;;4937149;28;20038;-84
2023/09/21 09:43:35;;;;;;;6.60;3.60;;;;;;;;;;4922282;29;20131;-84
2023/09/21 09:46:18;;;;;;;4.72;3.20;;;;;;;;;;4941287;28;20338;-87
2023/09/21 09:48:45;;;;;;;5.35;3.33;;;;;;;;;;4958054;28;20491;-84
2023/09/21 09:51:14;;;;;;;7.45;4.07;;;;;;;;;;4956830;28;20081;-85
2023/09/21 09:53:40;;;;;;;5.45;3.80;;;;;;;;;;4957518;28;20129;-83
2023/09/21 09:56:10;;;;;;;5.45;3.20;;;;;;;;;;4942522;28;20042;-86
2023/09/21 09:58:43;;;;;;;5.50;3.50;;;;;;;;;;4941754;28;20065;-83
2023/09/21 10:01:11;;;;;;;5.43;3.17;;;;;;;;;;4940648;28;20137;-88
2023/09/21 10:03:38;;;;;;;7.47;3.40;;;;;;;;;;4940957;28;20380;-85
2023/09/21 10:06:09;;;;;;;3.85;3.03;;;;;;;;;;4961037;28;20089;-82
2023/09/21 10:08:38;;;;;;;6.97;3.60;;;;;;;;;;4957531;28;20046;-85
2023/09/21 10:11:05;;;;;;;5.60;3.58;;;;;;;;;;4925673;28;20054;-85
2023/09/21 10:13:32;;;;;;;;;;;;;;;;;;4941157;28;20046;-81
2023/09/21 10:16:03;;;;;;;7.53;3.42;;;;;;;;;;4958326;28;20417;-81
2023/09/21 10:18:35;;;;;;;4.53;3.17;;;;;;;;;;4937348;28;20432;-86
2023/09/21 10:21:13;;;;;;;5.15;2.60;;;;;;;;;;4938102;28;20059;-86
2023/09/21 10:23:41;;;;;;;;;;;;;;;;;;4945469;28;20570;-84
2023/09/21 10:26:11;;;;;;;2.72;1.83;;;;;;;;;;4938236;28;20235;-87
2023/09/21 10:28:38;;;;;;;2.95;1.35;;;;;;;;;;4942126;28;20047;-88
2023/09/21 10:31:05;;;;;;;1.40;0.90;;;;;;;;;;4941384;28;20534;-83
2023/09/21 10:33:35;;;;;;;2.03;1.10;;;;;;;;;;4940932;28;20027;-85
2023/09/21 10:36:01;;;;;;;1.90;0.90;;;;;;;;;;4956966;28;20557;-87
2023/09/21 10:38:27;;;;;;;2.40;1.20;;;;;;;;;;4941477;28;20038;-86
2023/09/21 10:40:53;;;;;;;1.13;0.80;;;;;;;;;;4940406;28;20050;-85
2023/09/21 10:43:38;;;;;;;2.22;1.20;;;;;;;;;;4961504;28;20031;-83
2023/09/21 10:46:17;;;;;;;2.65;0.80;;;;;;;;;;4937871;28;20058;-85
2023/09/21 10:48:57;;;;;;;1.95;1.00;;;;;;;;;;4940976;28;20062;-86
2023/09/21 10:51:23;;;;;;;1.48;0.98;;;;;;;;;;4945147;28;20503;-84
2023/09/21 10:53:50;;;;;;;1.75;0.80;;;;;;;;;;4950985;28;20145;-84
2023/09/21 10:56:16;;;;;;;1.63;1.00;;;;;;;;;;4938857;28;20498;-86
2023/09/21 10:58:41;;;;;;;1.00;0.70;;;;;;;;;;4941622;28;20039;-85
2023/09/21 11:01:10;;;;;;;2.55;0.85;;;;;;;;;;4942128;28;20703;-84
2023/09/21 11:03:42;;;;;;;3.25;0.90;;;;;;;;;;4944542;28;20468;-85
2023/09/21 11:06:08;;;;;;;2.17;0.90;;;;;;;;;;4964230;28;20614;-87
2023/09/21 11:08:34;;;;;;;3.03;0.93;;;;;;;;;;4958199;28;20144;-86
2023/09/21 11:11:02;;;;;;;1.55;0.82;;;;;;;;;;4960652;28;20487;-86
2023/09/21 11:13:29;;;;;;;3.92;0.90;;;;;;;;;;4956150;28;20058;-85
2023/09/21 11:15:56;;;;;;;3.00;1.02;;;;;;;;;;4944407;28;20042;-86
2023/09/21 11:18:22;;;;;;;2.72;0.80;;;;;;;;;;4944178;28;20059;-85
2023/09/21 11:20:49;;;;;;;2.03;0.98;;;;;;;;;;4945632;28;20459;-84
2023/09/21 11:23:19;;;;;;;2.58;0.90;;;;;;;;;;4941445;28;20531;-85
2023/09/21 11:25:49;;;;;;;2.33;0.85;;;;;;;;;;4946001;28;20881;-87
2023/09/21 11:28:16;;;;;;;1.85;1.02;;;;;;;;;;4942309;28;20128;-85
2023/09/21 11:30:43;;;;;;;2.90;1.00;;;;;;;;;;4944227;28;20046;-85
2023/09/21 11:33:10;;;;;;;2.45;0.95;;;;;;;;;;4950296;28;20043;-88
2023/09/21 11:35:37;;;;;;;1.88;1.05;;;;;;;;;;4940060;28;20062;-85
2023/09/21 11:38:03;;;;;;;2.10;1.00;;;;;;;;;;4960794;28;20414;-84
2023/09/21 11:40:31;;;;;;;3.40;1.00;;;;;;;;;;4943040;28;20518;-85
2023/09/21 11:42:58;;;;;;;1.73;1.17;;;;;;;;;;4943563;28;20500;-84
2023/09/21 11:45:27;;;;;;;2.22;1.25;;;;;;;;;;4938457;28;20034;-84
2023/09/21 11:47:57;;;;;;;1.80;1.52;;;;;;;;;;4931122;28;20122;-83
2023/09/21 11:50:30;;;;;;;2.97;1.60;;;;;;;;;;4927937;29;20055;-85
2023/09/21 11:52:59;;;;;;;2.03;1.50;;;;;;;;;;4919505;29;20443;-84
2023/09/21 11:55:26;;;;;;;1.98;1.20;;;;;;;;;;4926309;29;20054;-84
2023/09/21 11:57:54;;;;;;;1.85;1.10;;;;;;;;;;4958765;28;20093;-85
2023/09/21 12:00:27;;;;;;;1.92;1.10;;;;;;;;;;4943620;29;20278;-86
2023/09/21 12:02:57;;;;;;;3.25;1.10;;;;;;;;;;4959570;28;20047;-85
2023/09/21 12:05:25;;;;;;;2.13;1.17;;;;;;;;;;4922049;28;20043;-84
2023/09/21 12:07:51;;;;;;;2.15;1.17;;;;;;;;;;4943409;28;20518;-82
2023/09/21 12:10:17;;;;;;;1.15;0.93;;;;;;;;;;4919637;29;20582;-84
2023/09/21 12:12:46;;;;;;;1.45;0.80;;;;;;;;;;4923075;28;20042;-87
2023/09/21 12:15:12;;;;;;;3.53;0.90;;;;;;;;;;4920209;29;20382;-84
2023/09/21 12:17:38;;;;;;;1.45;0.70;;;;;;;;;;4924507;28;20047;-84
2023/09/21 12:20:18;;;;;;;2.78;1.00;;;;;;;;;;4919036;29;20177;-85
2023/09/21 12:22:50;;;;;;;2.33;1.00;;;;;;;;;;4924184;29;20224;-83
2023/09/21 12:25:16;;;;;;;1.10;0.80;;;;;;;;;;4933902;28;20523;-85
2023/09/21 12:28:09;;;;;;;2.20;0.93;;;;;;;;;;4949297;28;20051;-86
2023/09/21 12:30:35;;;;;;;1.67;0.80;;;;;;;;;;4919604;29;20051;-88
2023/09/21 12:33:11;;;;;;;1.17;0.77;;;;;;;;;;4938464;29;20050;-86
2023/09/21 12:35:37;;;;;;;1.88;0.73;;;;;;;;;;4920831;29;20051;-85
2023/09/21 12:38:05;;;;;;;0.80;0.70;;;;;;;;;;4950096;28;20396;-86
2023/09/21 12:41:19;;;;;;;1.75;0.90;;;;;;;;;;4921427;29;20127;-86
2023/09/21 12:43:29;;;;;;;1.65;0.90;;;;;;;;;;4910373;29;20082;-84
2023/09/21 12:45:59;;;;;;;1.45;0.90;;;;;;;;;;4939669;29;20042;-85
2023/09/21 12:48:25;;;;;;;2.67;1.70;;;;;;;;;;4936496;29;20051;-81
2023/09/21 12:50:52;;;;;;;1.40;0.80;;;;;;;;;;4934766;29;20086;-83
2023/09/21 12:53:18;;;;;;;1.63;1.08;;;;;;;;;;4921568;28;20042;-79
2023/09/21 12:55:44;;;;;;;1.65;1.00;;;;;;;;;;4934466;28;20137;-78
2023/09/21 12:58:11;;;;;;;1.30;1.08;;;;;;;;;;4937087;28;20503;-78
2023/09/21 13:00:38;;;;;;;1.73;0.80;;;;;;;;;;4937120;29;20051;-78
2023/09/21 13:03:04;;;;;;;2.35;0.70;;;;;;;;;;4939154;28;20046;-79
2023/09/21 13:05:30;;;;;;;2.00;1.02;;;;;;;;;;4937239;28;20097;-78
2023/09/21 13:07:56;;;;;;;2.58;0.70;;;;;;;;;;4939930;28;20041;-79
2023/09/21 13:10:22;;;;;;;3.17;0.70;;;;;;;;;;4937717;29;20043;-78
2023/09/21 13:12:49;;;;;;;3.40;0.80;;;;;;;;;;4937683;28;20055;-78
2023/09/21 13:15:15;;;;;;;1.13;0.70;;;;;;;;;;4937436;28;20051;-78
2023/09/21 13:17:42;;;;;;;1.52;0.85;;;;;;;;;;4918953;28;20483;-77
2023/09/21 13:20:08;;;;;;;1.30;0.80;;;;;;;;;;4940345;28;20519;-79
2023/09/21 13:22:35;;;;;;;1.52;0.80;;;;;;;;;;4935451;29;20094;-78
2023/09/21 13:25:01;;;;;;;2.60;0.73;;;;;;;;;;4919018;29;20297;-79
2023/09/21 13:27:30;;;;;;;4.78;1.55;;;;;;;;;;4936468;29;20044;-79
2023/09/21 13:29:57;;;;;;;1.90;1.20;;;;;;;;;;4933236;29;20043;-79
2023/09/21 13:32:25;;;;;;;3.47;0.80;;;;;;;;;;4932086;28;20057;-79
2023/09/21 13:34:51;;;;;;;1.77;0.90;;;;;;;;;;4946603;28;20059;-80
2023/09/21 13:37:25;;;;;;;2.00;0.90;;;;;;;;;;4934708;29;20813;-81
2023/09/21 13:39:54;;;;;;;1.25;0.90;;;;;;;;;;4934710;29;20062;-79
2023/09/21 13:42:20;;;;;;;1.05;0.80;;;;;;;;;;4936723;29;20054;-79
2023/09/21 13:44:46;;;;;;;1.92;0.90;;;;;;;;;;4932946;29;20040;-78
2023/09/21 13:47:12;;;;;;;1.27;0.93;;;;;;;;;;4942662;28;20412;-79
2023/09/21 13:49:38;;;;;;;1.85;0.95;;;;;;;;;;4920897;29;20074;-78
2023/09/21 13:52:07;;;;;;;2.08;0.93;;;;;;;;;;4939616;29;20047;-79
2023/09/21 13:54:33;;;;;;;2.28;1.20;;;;;;;;;;4913944;29;20141;-77
2023/09/21 13:56:59;;;;;;;1.30;1.10;;;;;;;;;;4915498;29;20689;-79
2023/09/21 13:59:25;;;;;;;1.55;0.65;;;;;;;;;;4920707;29;20074;-79
2023/09/21 14:01:51;;;;;;;2.05;0.98;;;;;;;;;;4918511;29;20083;-78
2023/09/21 14:04:17;;;;;;;1.13;0.80;;;;;;;;;;4938284;29;20036;-79
2023/09/21 14:06:43;;;;;;;1.48;1.00;;;;;;;;;;4934544;28;20047;-78
2023/09/21 14:09:09;;;;;;;1.20;0.75;;;;;;;;;;4918241;29;20427;-78
2023/09/21 14:11:35;;;;;;;1.25;0.70;;;;;;;;;;4912999;29;20047;-80
2023/09/21 14:14:04;;;;;;;1.35;0.75;;;;;;;;;;4914618;29;20165;-80
2023/09/21 14:16:34;;;;;;;1.63;0.80;;;;;;;;;;4898659;29;20449;-79
2023/09/21 14:19:03;;;;;;;1.15;0.80;;;;;;;;;;4917695;29;20062;-80
2023/09/21 14:21:36;;;;;;;2.15;0.75;;;;;;;;;;4914834;29;20074;-80
2023/09/21 14:27:12;;;;;;;1.33;0.80;;;;;;;;;;4929448;29;20103;-80
2023/09/21 14:29:48;;;;;;;2.03;0.80;;;;;;;;;;4913268;29;20078;-79
2023/09/21 14:32:25;;;;;;;0.93;0.70;;;;;;;;;;4918306;29;20090;-80
2023/09/21 14:34:57;;;;;;;1.00;0.80;;;;;;;;;;4906271;29;20043;-79
2023/09/21 14:37:26;;;;;;;1.48;0.90;;;;;;;;;;4940375;29;20051;-81
2023/09/21 14:39:53;;;;;;;2.28;1.10;;;;;;;;;;4939957;29;20174;-79
2023/09/21 14:42:20;;;;;;;3.90;1.17;;;;;;;;;;4924114;29;20036;-78
2023/09/21 14:44:46;;;;;;;1.77;0.88;;;;;;;;;;4917786;29;20051;-79
2023/09/21 14:47:12;;;;;;;2.63;1.10;;;;;;;;;;4928372;28;20725;-80
2023/09/21 14:49:38;;;;;;;2.50;1.00;;;;;;;;;;4922009;28;21231;-79
2023/09/21 14:52:04;;;;;;;6.25;1.40;;;;;;;;;;4943188;28;20089;-79
2023/09/21 14:54:31;;;;;;;3.55;1.20;;;;;;;;;;4944912;28;20051;-79
2023/09/21 14:56:59;;;;;;;3.55;1.40;;;;;;;;;;4957153;28;20065;-78
2023/09/21 14:59:25;;;;;;;5.15;1.10;;;;;;;;;;4928486;28;20051;-78
2023/09/21 15:01:51;;;;;;;2.75;1.02;;;;;;;;;;4944753;28;20053;-76
2023/09/21 15:04:19;;;;;;;4.30;1.15;;;;;;;;;;4924209;28;20053;-79